createdAt,value
2022-10-18T00:01:56.965Z,20.43
2022-10-18T00:07:00.506Z,20.44
2022-10-18T00:12:03.664Z,20.43
2022-10-18T00:17:06.377Z,20.34
2022-10-18T00:22:09.030Z,20.26
2022-10-18T00:27:11.942Z,20.23
2022-10-18T00:32:14.476Z,20.25
2022-10-18T00:37:17.617Z,20.25
2022-10-18T00:42:22.511Z,20.25
2022-10-18T00:47:25.019Z,20.24
2022-10-18T00:52:34.059Z,20.24
2022-10-18T00:57:38.228Z,20.26
2022-10-18T01:02:43.692Z,20.29
2022-10-18T01:07:52.146Z,20.37
2022-10-18T01:13:12.446Z,20.28
2022-10-18T01:18:39.736Z,20.21
2022-10-18T01:24:12.134Z,20.20
2022-10-18T01:29:29.570Z,20.23
2022-10-18T01:34:35.175Z,20.20
2022-10-18T01:39:39.937Z,20.12
2022-10-18T01:44:44.883Z,20.01
2022-10-18T01:49:47.472Z,19.96
2022-10-18T01:54:50.367Z,19.94
2022-10-18T02:00:06.744Z,19.93
2022-10-18T02:05:41.074Z,19.91
2022-10-18T02:10:48.557Z,19.84
2022-10-18T02:15:56.216Z,19.77
2022-10-18T02:21:00.329Z,19.67
2022-10-18T02:26:03.229Z,19.58
2022-10-18T02:31:31.224Z,19.50
2022-10-18T02:36:42.069Z,19.37
2022-10-18T02:41:44.503Z,19.36
2022-10-18T02:46:47.647Z,19.37
2022-10-18T02:51:50.089Z,19.43
2022-10-18T02:56:53.083Z,19.48
2022-10-18T03:01:55.622Z,19.47
2022-10-18T03:06:58.188Z,19.45
2022-10-18T03:12:00.703Z,19.44
2022-10-18T03:17:04.836Z,19.39
2022-10-18T03:22:07.451Z,19.28
2022-10-18T03:27:09.905Z,19.26
2022-10-18T03:32:12.318Z,19.30
2022-10-18T03:37:14.709Z,19.30
2022-10-18T03:42:17.237Z,19.30
2022-10-18T03:47:19.693Z,19.29
2022-10-18T03:52:22.110Z,19.28
2022-10-18T03:57:24.548Z,19.35
2022-10-18T04:02:27.669Z,19.44
2022-10-18T04:07:30.377Z,19.52
2022-10-18T04:12:33.444Z,19.58
2022-10-18T04:17:36.656Z,19.47
2022-10-18T04:22:39.084Z,19.45
2022-10-18T04:27:41.553Z,19.51
2022-10-18T04:32:44.117Z,19.64
2022-10-18T04:37:46.750Z,19.75
2022-10-18T04:42:49.537Z,19.80
2022-10-18T04:47:51.950Z,19.84
2022-10-18T04:52:54.394Z,19.86
2022-10-18T04:57:57.109Z,19.90
2022-10-18T05:02:59.527Z,19.92
2022-10-18T05:08:01.962Z,19.98
2022-10-18T05:13:04.465Z,20.01
2022-10-18T05:18:07.712Z,20.05
2022-10-18T05:23:10.911Z,20.05
2022-10-18T05:28:38.007Z,20.11
2022-10-18T05:33:36.338Z,20.13
2022-10-18T05:38:42.701Z,20.14
2022-10-18T05:43:45.531Z,20.17
2022-10-18T05:48:51.624Z,20.22
2022-10-18T05:53:54.688Z,20.27
2022-10-18T05:58:57.361Z,20.28
2022-10-18T06:03:59.847Z,20.27
2022-10-18T06:09:03.510Z,20.33
2022-10-18T06:14:07.971Z,20.30
2022-10-18T06:19:12.072Z,20.30
2022-10-18T06:24:14.509Z,20.44
2022-10-18T06:29:16.950Z,20.62
2022-10-18T06:34:19.469Z,20.77
2022-10-18T06:39:23.331Z,20.85
2022-10-18T06:44:25.975Z,20.90
2022-10-18T06:49:28.393Z,20.98
2022-10-18T06:54:30.797Z,21.05
2022-10-18T06:59:34.121Z,21.12
2022-10-18T07:04:36.576Z,21.11
2022-10-18T07:09:39.368Z,21.16
2022-10-18T07:14:41.775Z,21.21
2022-10-18T07:19:44.132Z,21.37
2022-10-18T07:24:46.809Z,21.47
2022-10-18T07:29:49.590Z,21.48
2022-10-18T07:34:52.180Z,21.44
2022-10-18T07:39:54.614Z,21.35
2022-10-18T07:44:57.179Z,21.29
2022-10-18T07:49:59.577Z,21.31
2022-10-18T07:55:02.017Z,21.29
2022-10-18T08:00:05.029Z,21.23
2022-10-18T08:05:07.794Z,21.32
2022-10-18T08:10:10.210Z,21.34
2022-10-18T08:15:12.880Z,21.32
2022-10-18T08:20:29.798Z,21.29
2022-10-18T08:30:38.126Z,21.17
2022-10-18T08:35:40.561Z,21.24
2022-10-18T08:40:44.368Z,21.40
2022-10-18T08:45:46.939Z,21.57
2022-10-18T08:50:50.838Z,21.75
2022-10-18T08:56:21.091Z,21.90
2022-10-18T09:07:10.986Z,21.95
2022-10-18T09:12:13.369Z,21.76
2022-10-18T09:17:34.419Z,21.58
2022-10-18T09:22:41.467Z,21.56
2022-10-18T09:27:52.796Z,21.73
2022-10-18T09:33:05.768Z,21.88
2022-10-18T09:38:12.526Z,22.02
2022-10-18T09:43:23.232Z,22.03
2022-10-18T09:48:37.206Z,22.00
2022-10-18T09:54:21.960Z,21.96
2022-10-18T09:59:34.059Z,22.11
2022-10-18T10:04:36.425Z,22.26
2022-10-18T10:09:48.104Z,22.14
2022-10-18T10:14:50.504Z,22.15
2022-10-18T10:19:58.872Z,22.30
2022-10-18T10:25:02.012Z,22.36
2022-10-18T10:30:22.839Z,22.39
2022-10-18T10:35:59.383Z,22.43
2022-10-18T10:41:02.137Z,22.45
2022-10-18T10:46:12.920Z,22.53
2022-10-18T10:51:27.287Z,22.50
2022-10-18T10:56:33.904Z,22.42
2022-10-18T11:01:37.252Z,22.41
2022-10-18T11:06:44.791Z,22.39
2022-10-18T11:11:56.654Z,22.22
2022-10-18T11:17:23.459Z,22.19
2022-10-18T11:22:27.770Z,22.18
2022-10-18T11:27:42.884Z,22.27
2022-10-18T11:33:14.614Z,22.39
2022-10-18T11:38:40.067Z,22.38
2022-10-18T11:44:02.944Z,22.31
2022-10-18T11:49:15.728Z,22.16
2022-10-18T11:54:30.073Z,21.97
2022-10-18T11:59:42.393Z,21.83
2022-10-18T12:05:05.946Z,21.78
2022-10-18T12:10:26.231Z,21.75
2022-10-18T12:15:41.135Z,21.84
2022-10-18T12:20:49.515Z,22.04
2022-10-18T12:25:56.834Z,22.15
2022-10-18T12:31:20.898Z,22.09
2022-10-18T12:36:44.909Z,22.11
2022-10-18T12:41:48.475Z,22.08
2022-10-18T12:46:55.659Z,22.10
2022-10-18T12:52:06.645Z,22.04
2022-10-18T12:57:23.238Z,21.85
2022-10-18T13:02:28.114Z,21.66
2022-10-18T13:07:32.231Z,21.63
2022-10-18T13:12:55.089Z,21.62
2022-10-18T13:18:10.075Z,21.48
2022-10-18T13:23:33.876Z,21.45
2022-10-18T13:29:02.770Z,21.43
2022-10-18T13:34:24.033Z,21.39
2022-10-18T13:39:27.742Z,21.32
2022-10-18T13:44:37.839Z,21.34
2022-10-18T13:49:40.420Z,21.38
2022-10-18T13:55:07.087Z,21.45
2022-10-18T14:00:49.063Z,21.41
2022-10-18T14:05:56.812Z,21.33
2022-10-18T14:11:24.212Z,21.33
2022-10-18T14:16:53.534Z,21.43
2022-10-18T14:22:19.783Z,21.47
2022-10-18T14:27:26.791Z,21.49
2022-10-18T14:32:32.059Z,21.48
2022-10-18T14:37:36.501Z,21.42
2022-10-18T14:42:50.803Z,21.33
2022-10-18T14:47:53.311Z,21.28
2022-10-18T14:52:55.944Z,21.12
2022-10-18T14:57:59.274Z,20.97
2022-10-18T15:03:05.135Z,20.91
2022-10-18T15:08:09.613Z,20.80
2022-10-18T15:13:13.625Z,20.75
2022-10-18T15:18:24.839Z,20.73
2022-10-18T15:23:31.916Z,20.67
2022-10-18T15:28:40.063Z,20.61
2022-10-18T15:33:42.584Z,20.49
2022-10-18T15:38:47.604Z,20.44
2022-10-18T15:44:10.274Z,20.49
2022-10-18T15:49:47.316Z,20.53
2022-10-18T15:54:49.679Z,20.56
2022-10-18T16:00:02.172Z,20.54
2022-10-18T16:05:05.347Z,20.53
2022-10-18T16:10:14.538Z,20.55
2022-10-18T16:15:17.113Z,20.61
2022-10-18T16:20:24.920Z,20.66
2022-10-18T16:25:27.535Z,20.61
2022-10-18T16:30:32.954Z,20.50
2022-10-18T16:35:35.856Z,20.37
2022-10-18T16:40:41.168Z,20.26
2022-10-18T16:45:44.598Z,20.20
2022-10-18T16:50:47.930Z,20.16
2022-10-18T16:55:57.301Z,20.14
2022-10-18T17:01:01.894Z,20.14
2022-10-18T17:06:13.358Z,20.14
2022-10-18T17:11:16.920Z,20.09
2022-10-18T17:16:38.854Z,20.07
2022-10-18T17:21:41.620Z,20.03
2022-10-18T17:26:44.353Z,20.02
2022-10-18T17:31:47.853Z,19.93
2022-10-18T17:36:50.338Z,19.87
2022-10-18T17:41:52.806Z,19.85
2022-10-18T17:46:56.292Z,19.85
2022-10-18T17:52:01.150Z,19.81
2022-10-18T17:57:05.736Z,19.75
2022-10-18T18:02:10.799Z,19.72
2022-10-18T18:07:13.519Z,19.76
2022-10-18T18:12:16.280Z,19.75
2022-10-18T18:17:28.568Z,19.73
2022-10-18T18:22:41.651Z,19.63
2022-10-18T18:27:45.907Z,19.54
2022-10-18T18:32:48.733Z,19.39
2022-10-18T18:37:51.272Z,19.31
2022-10-18T18:43:12.139Z,19.26
2022-10-18T18:48:19.094Z,19.16
2022-10-18T18:53:25.989Z,19.11
2022-10-18T18:58:33.909Z,18.96
2022-10-18T19:03:38.589Z,18.87
2022-10-18T19:08:44.562Z,18.79
2022-10-18T19:13:48.749Z,18.64
2022-10-18T19:18:52.073Z,18.54
2022-10-18T19:23:56.497Z,18.49
2022-10-18T19:29:07.334Z,18.52
2022-10-18T19:34:12.577Z,18.43
2022-10-18T19:39:18.785Z,18.39
2022-10-18T19:44:23.051Z,18.35
2022-10-18T19:49:26.177Z,18.29
2022-10-18T19:54:28.657Z,18.18
2022-10-18T19:59:31.273Z,17.97
2022-10-18T20:04:35.001Z,17.81
2022-10-18T20:09:38.175Z,17.63
2022-10-18T20:14:40.678Z,17.55
2022-10-18T20:19:43.589Z,17.52
2022-10-18T20:24:46.601Z,17.45
2022-10-18T20:29:51.546Z,17.34
2022-10-18T20:34:54.292Z,17.26
2022-10-18T20:39:56.737Z,17.18
2022-10-18T20:44:59.288Z,17.08
2022-10-18T20:50:02.458Z,17.00
2022-10-18T20:55:06.489Z,16.93
2022-10-18T21:00:11.516Z,16.87
2022-10-18T21:05:16.430Z,16.76
2022-10-18T21:10:18.838Z,16.76
2022-10-18T21:15:21.291Z,16.78
2022-10-18T21:20:24.816Z,16.76
2022-10-18T21:25:27.190Z,16.68
2022-10-18T21:30:29.973Z,16.66
2022-10-18T21:35:38.917Z,16.68
2022-10-18T21:40:44.457Z,16.72
2022-10-18T21:45:46.825Z,16.64
2022-10-18T21:50:50.034Z,16.65
2022-10-18T21:55:52.433Z,16.72
2022-10-18T22:00:54.894Z,16.79
2022-10-18T22:06:07.843Z,16.81
2022-10-18T22:11:12.338Z,16.82
2022-10-18T22:16:16.357Z,16.84
2022-10-18T22:21:20.140Z,16.92
2022-10-18T22:26:28.874Z,17.02
2022-10-18T22:31:34.783Z,17.09
2022-10-18T22:36:38.077Z,17.06
2022-10-18T22:41:41.242Z,17.02
2022-10-18T22:46:43.676Z,17.04
2022-10-18T22:51:46.123Z,17.04
2022-10-18T22:56:48.531Z,16.75
2022-10-18T23:01:51.200Z,16.59
2022-10-18T23:06:53.631Z,16.52
2022-10-18T23:11:56.120Z,16.56
2022-10-18T23:16:58.613Z,16.58
2022-10-18T23:22:01.021Z,16.59
2022-10-18T23:27:03.494Z,16.58
2022-10-18T23:32:05.932Z,16.47
2022-10-18T23:37:08.685Z,16.39
2022-10-18T23:42:11.279Z,16.39
2022-10-18T23:47:14.842Z,16.33
2022-10-18T23:52:17.304Z,16.21
2022-10-18T23:57:19.663Z,16.12
